Ana Sayfa
METAR-TAF:

METAR-TAF

Havaalanları :

Ouagadougou, Burkina Faso

Enlem: 12-21N, Boylam: 001-31W, yükseklik: 316 m

Güncel hava durumu gözlemi

Rapor saat 12:00 UTC de 1 saat ve 12 dakika önce yapıldı.
Rüzgar batı/güneybatıdan 4 kt
Sıcaklık 34°C
Nem 56%
Basınç 1011 hPa
Görüş mesafesi 10 km veya daha fazla
2000 ft yükseklikte az bulutlu

METAR: DFFD 191200Z 24004KT 9999 FEW020 34/24 Q1011 NOSIG

Saat: 13:12 (13:12 UTC)

Tahmin

Rapor saat 11:00 UTC de 2 saat ve 12 dakika önce yapıldı.
Ayın 19'si saat 12 UTC'den ayın 20'si saat 18 UTC'ye kadar geçerli Tahmin
Rüzgar batı/güneybatıdan 8 kt
Görüş mesafesi 10 km veya daha fazla
2000 ft yükseklikte az bulutlu
Geçici
ayın 19'si saat 14 UTC'den ayın 19'si saat 22 UTC'ye kadar
Görüş mesafesi: 4000 m
2000 ft yükseklikte parçalı bulutlu
3600 ft yükseklikte parçalı bulutlu, Kümülonimbus.
gök gürültülü fırtına, yağmur

TAF: DFFD 191100Z 1912/2018 24008KT 9999 FEW020 TEMPO 1914/1922 4000 TSRA SCT020 SCT036CB

4.000'den fazla havaalanı için hava durumu gözlemleri ve tahminleri (METAR ve TAF raporları).

Kullanılabilir istasyonlar harita üzerinde sarı ve kırmızı noktalarla gösterilir.

İstasyonun adını görmek için fareyi noktanın üzerinde gezdirin.

Sonrasında hava gözlem ve tahminlerini görmek için tıklayın.

Haritayı değiştirmek için: yaklaştırmak için siyah artı işaretli yeşil düğmeye ve uzaklaştırmak için de eksi işaretli düğmeye hızla tıklayın; bitişik haritalar için yeşil okları kullanın.


METAR-TAF: